Time;durP1;ratioP1;P1;durP2;ratioP2;P2;SDS_P1;SDS_P2;PMS_P1;PMS_P2;Temp;Humidity;BMP_temperature;BMP_pressure;BME280_temperature;BME280_humidity;BME280_pressure;Samples;Min_cycle;Max_cycle;Signal;HPM_P1;HPM_P2
2022/10/29 00:00:24;;;;;;;15.48;5.22;;;;;;;9.00;100.00;93857.03;2126994;27;20072;-73
2022/10/29 00:01:25;;;;;;;11.07;4.10;;;;;;;9.04;100.00;93855.13;2127376;27;20414;-72
2022/10/29 00:02:26;;;;;;;19.80;4.57;;;;;;;9.15;100.00;93852.38;2127192;27;20034;-73
2022/10/29 00:03:27;;;;;;;13.15;4.03;;;;;;;9.29;100.00;93851.56;2127072;27;20217;-72
2022/10/29 00:04:28;;;;;;;12.20;4.55;;;;;;;9.23;100.00;93853.13;2118095;27;20028;-73
2022/10/29 00:05:28;;;;;;;17.45;4.50;;;;;;;9.14;100.00;93852.78;2117709;27;20031;-72
2022/10/29 00:06:29;;;;;;;14.02;4.35;;;;;;;9.23;100.00;93853.88;2130638;27;20029;-72
2022/10/29 00:07:30;;;;;;;14.85;4.25;;;;;;;9.21;100.00;93850.81;2127247;27;20023;-74
2022/10/29 00:08:34;;;;;;;11.73;4.40;;;;;;;9.19;100.00;93850.47;2124082;27;20035;-73
2022/10/29 00:09:35;;;;;;;11.88;4.25;;;;;;;9.11;100.00;93851.66;2127286;27;20054;-72
2022/10/29 00:10:36;;;;;;;13.95;4.20;;;;;;;9.06;100.00;93849.38;2117569;27;20028;-73
2022/10/29 00:11:37;;;;;;;15.15;4.07;;;;;;;9.01;100.00;93855.88;2115942;27;20134;-72
2022/10/29 00:12:38;;;;;;;11.63;4.35;;;;;;;8.96;100.00;93850.19;2117936;27;20023;-72
2022/10/29 00:13:39;;;;;;;12.63;4.10;;;;;;;8.99;100.00;93852.81;2107101;28;20050;-72
2022/10/29 00:14:40;;;;;;;13.57;3.60;;;;;;;9.15;100.00;93854.31;2118185;27;20023;-72
2022/10/29 00:15:41;;;;;;;18.88;4.97;;;;;;;9.11;100.00;93853.56;2125183;27;20034;-73
2022/10/29 00:16:42;;;;;;;14.80;4.13;;;;;;;9.16;100.00;93853.91;2127294;27;20057;-73
2022/10/29 00:17:43;;;;;;;11.88;4.53;;;;;;;9.08;100.00;93845.16;2127205;27;20037;-72
2022/10/29 00:18:44;;;;;;;11.98;4.20;;;;;;;9.08;100.00;93842.50;2122088;27;20046;-72
2022/10/29 00:19:45;;;;;;;12.82;4.00;;;;;;;9.11;100.00;93848.22;2122264;27;20020;-73
2022/10/29 00:20:47;;;;;;;12.85;4.38;;;;;;;9.12;100.00;93849.72;2127062;27;20136;-72
2022/10/29 00:21:51;;;;;;;11.13;4.40;;;;;;;9.06;100.00;93846.72;2120943;27;20041;-73
2022/10/29 00:22:52;;;;;;;9.77;3.67;;;;;;;9.07;100.00;93846.31;2110043;27;20024;-72
2022/10/29 00:23:55;;;;;;;16.52;4.43;;;;;;;9.14;100.00;93850.13;2105418;27;20088;-72
2022/10/29 00:24:56;;;;;;;10.90;4.35;;;;;;;9.12;100.00;93852.41;2118455;27;20031;-72
2022/10/29 00:26:01;;;;;;;16.77;5.07;;;;;;;9.20;100.00;93851.22;2127019;27;20023;-73
2022/10/29 00:27:02;;;;;;;13.32;4.63;;;;;;;9.22;100.00;93854.25;2125418;27;20361;-74
2022/10/29 00:28:03;;;;;;;12.68;4.47;;;;;;;9.19;100.00;93858.47;2127119;27;20102;-74
2022/10/29 00:29:04;;;;;;;14.00;4.32;;;;;;;9.21;100.00;93852.75;2127189;27;20030;-72
2022/10/29 00:30:06;;;;;;;17.23;4.68;;;;;;;9.16;100.00;93856.56;2117754;27;20301;-72
2022/10/29 00:31:11;;;;;;;15.52;5.00;;;;;;;9.17;100.00;93852.00;2117617;27;20117;-73
2022/10/29 00:32:12;;;;;;;15.23;4.93;;;;;;;9.14;100.00;93848.22;2130689;27;20039;-71
2022/10/29 00:33:13;;;;;;;23.13;4.95;;;;;;;9.17;100.00;93844.75;2126726;27;20058;-71
2022/10/29 00:34:14;;;;;;;11.20;4.35;;;;;;;9.26;100.00;93847.00;2117890;27;20095;-72
2022/10/29 00:35:15;;;;;;;11.80;5.15;;;;;;;9.21;100.00;93850.06;2117973;27;20068;-72
2022/10/29 00:36:18;;;;;;;11.63;4.60;;;;;;;9.17;100.00;93858.09;2127019;27;20050;-71
2022/10/29 00:37:19;;;;;;;19.38;4.75;;;;;;;9.14;100.00;93853.53;2129353;27;20103;-71
2022/10/29 00:38:20;;;;;;;11.95;4.65;;;;;;;9.38;100.00;93854.56;2125632;27;20502;-71
2022/10/29 00:39:21;;;;;;;12.50;4.43;;;;;;;9.49;100.00;93849.19;2117789;27;20028;-71
2022/10/29 00:40:22;;;;;;;17.63;4.70;;;;;;;9.37;100.00;93853.06;2109416;28;20426;-72
2022/10/29 00:41:26;;;;;;;19.90;4.28;;;;;;;9.43;100.00;93853.38;2117705;27;20038;-71
2022/10/29 00:42:27;;;;;;;17.38;4.30;;;;;;;9.40;100.00;93849.59;2125152;27;20540;-71
2022/10/29 00:43:28;;;;;;;13.57;4.13;;;;;;;9.38;100.00;93849.22;2126631;27;20102;-71
2022/10/29 00:44:34;;;;;;;15.25;4.60;;;;;;;9.38;100.00;93843.88;2126902;27;20091;-72
2022/10/29 00:45:35;;;;;;;13.65;4.07;;;;;;;9.54;100.00;93844.19;2126957;27;20038;-72
2022/10/29 00:46:36;;;;;;;13.15;4.55;;;;;;;9.43;100.00;93835.47;2126999;27;20361;-72
2022/10/29 00:47:39;;;;;;;14.82;4.13;;;;;;;9.68;100.00;93839.91;2125061;27;20096;-72
2022/10/29 00:48:44;;;;;;;11.93;4.32;;;;;;;9.61;100.00;93832.69;2127075;27;20027;-71
2022/10/29 00:50:12;;;;;;;17.80;3.97;;;;;;;9.57;100.00;93830.06;2126941;27;20062;-71
2022/10/29 00:51:15;;;;;;;15.88;4.65;;;;;;;9.58;100.00;93831.59;2122539;27;20515;-72
2022/10/29 00:52:19;;;;;;;12.85;3.85;;;;;;;9.64;100.00;93833.84;2126614;27;20103;-73
2022/10/29 00:53:25;;;;;;;9.80;3.60;;;;;;;9.88;100.00;93837.47;2126520;27;20038;-72
2022/10/29 00:54:28;;;;;;;13.07;3.80;;;;;;;9.80;100.00;93832.19;2123075;27;20033;-72
2022/10/29 00:55:30;;;;;;;13.93;4.13;;;;;;;9.82;100.00;93831.78;2127393;27;20040;-73
2022/10/29 00:56:33;;;;;;;18.05;4.35;;;;;;;9.70;100.00;93837.59;2125976;27;20079;-73
2022/10/29 00:57:45;;;;;;;6.40;3.90;;;;;;;9.71;100.00;93839.88;2125177;27;20159;-72
2022/10/29 00:58:47;;;;;;;15.55;4.07;;;;;;;9.66;100.00;93836.84;2117866;27;20024;-72
2022/10/29 00:59:49;;;;;;;10.40;3.55;;;;;;;9.68;100.00;93843.34;2117158;27;20411;-71
2022/10/29 01:00:50;;;;;;;17.60;4.10;;;;;;;9.90;100.00;93840.50;2117507;27;20505;-73
2022/10/29 01:01:51;;;;;;;14.55;4.03;;;;;;;9.81;100.00;93840.97;2105316;28;20028;-71
2022/10/29 01:02:52;;;;;;;15.15;4.45;;;;;;;9.75;100.00;93837.94;2121826;27;20143;-73
2022/10/29 01:03:54;;;;;;;13.57;4.43;;;;;;;9.76;100.00;93838.72;2126372;27;20026;-72
2022/10/29 01:04:55;;;;;;;18.10;4.25;;;;;;;9.69;100.00;93849.44;2122812;27;20058;-72
2022/10/29 01:05:57;;;;;;;20.17;4.47;;;;;;;9.73;100.00;93842.16;2127460;27;20030;-71
2022/10/29 01:06:58;;;;;;;11.85;3.85;;;;;;;9.75;100.00;93845.22;2126545;27;20037;-71
2022/10/29 01:08:00;;;;;;;13.63;4.50;;;;;;;9.72;100.00;93841.41;2126697;27;20027;-71
2022/10/29 01:09:01;;;;;;;11.80;4.00;;;;;;;9.70;100.00;93841.03;2118617;27;20019;-71
2022/10/29 01:10:03;;;;;;;18.70;4.30;;;;;;;9.66;100.00;93844.84;2117499;27;20050;-72
2022/10/29 01:11:18;;;;;;;10.25;4.22;;;;;;;9.66;100.00;93847.53;2126705;27;20092;-71
2022/10/29 01:12:38;;;;;;;11.10;4.25;;;;;;;9.64;100.00;93852.50;2126751;27;20035;-71
2022/10/29 01:13:59;;;;;;;14.70;4.07;;;;;;;9.66;100.00;93852.88;2116468;27;20041;-73
2022/10/29 01:15:39;;;;;;;12.50;4.18;;;;;;;9.68;100.00;93850.59;2123371;27;20083;-72
2022/10/29 01:16:59;;;;;;;13.02;4.00;;;;;;;9.64;100.00;93839.16;2127306;27;20027;-72
2022/10/29 01:18:02;;;;;;;10.77;3.58;;;;;;;9.63;100.00;93843.75;2114211;27;20678;-73
2022/10/29 01:19:25;;;;;;;11.05;4.03;;;;;;;9.59;100.00;93845.69;2117218;27;20035;-72
2022/10/29 01:20:55;;;;;;;12.07;3.78;;;;;;;9.57;100.00;93835.41;2114789;27;20063;-72
2022/10/29 01:22:38;;;;;;;13.30;3.40;;;;;;;9.53;100.00;93834.66;2114204;27;20520;-73
2022/10/29 01:24:12;;;;;;;19.23;4.35;;;;;;;9.55;100.00;93831.59;2124181;27;20039;-73
2022/10/29 01:25:44;;;;;;;13.93;4.15;;;;;;;9.51;100.00;93833.53;2125222;27;20022;-73
2022/10/29 01:27:35;;;;;;;7.25;3.85;;;;;;;9.45;100.00;93833.19;2125326;27;20031;-73
2022/10/29 01:29:03;;;;;;;13.15;3.85;;;;;;;9.45;100.00;93835.09;2091649;28;20072;-72
2022/10/29 01:30:39;;;;;;;11.30;4.10;;;;;;;9.46;100.00;93825.94;2126585;27;20483;-72
2022/10/29 01:31:50;;;;;;;15.43;4.10;;;;;;;9.53;100.00;93831.25;2124783;27;20030;-71
2022/10/29 01:33:04;;;;;;;9.98;3.88;;;;;;;9.52;100.00;93833.13;2126530;27;20031;-71
2022/10/29 01:34:41;;;;;;;9.65;3.42;;;;;;;9.51;100.00;93826.28;2116547;27;20034;-73
2022/10/29 01:36:20;;;;;;;13.05;4.07;;;;;;;9.47;100.00;93824.78;2112720;27;20039;-71
2022/10/29 01:37:30;;;;;;;12.93;3.78;;;;;;;9.45;100.00;93821.75;2112910;27;20034;-73
2022/10/29 01:39:00;;;;;;;14.13;4.63;;;;;;;9.47;100.00;93822.88;2126690;27;20031;-72
2022/10/29 01:40:06;;;;;;;16.30;4.05;;;;;;;9.49;100.00;93823.25;2123132;27;20079;-71
2022/10/29 01:41:13;;;;;;;9.18;4.03;;;;;;;9.47;100.00;93824.78;2124230;27;20045;-71
2022/10/29 01:42:22;;;;;;;9.55;4.40;;;;;;;9.46;100.00;93816.03;2129167;27;20023;-71
2022/10/29 01:43:44;;;;;;;10.07;3.50;;;;;;;9.50;100.00;93814.09;2126394;27;20821;-72
2022/10/29 01:45:24;;;;;;;12.48;4.22;;;;;;;9.51;100.00;93812.94;2125400;27;20033;-72
2022/10/29 01:46:55;;;;;;;;;;;;;;;9.52;100.00;93816.34;2121738;27;20087;-72
2022/10/29 01:48:06;;;;;;;12.07;3.72;;;;;;;9.54;100.00;93814.81;2097227;27;20013;-73
2022/10/29 01:49:13;;;;;;;11.25;3.65;;;;;;;9.65;100.00;93814.00;2126520;27;20457;-73
2022/10/29 01:50:19;;;;;;;12.98;4.38;;;;;;;9.64;100.00;93817.81;2126533;27;20054;-73
2022/10/29 01:51:27;;;;;;;11.82;3.92;;;;;;;9.65;100.00;93814.75;2122380;27;20454;-72
2022/10/29 01:52:32;;;;;;;11.48;3.60;;;;;;;9.63;100.00;93810.97;2113612;27;20106;-74
2022/10/29 01:53:35;;;;;;;13.57;4.35;;;;;;;9.58;100.00;93807.56;2108872;28;20076;-71
2022/10/29 01:54:44;;;;;;;16.17;4.65;;;;;;;9.57;100.00;93803.38;2109028;28;20378;-73
2022/10/29 01:55:44;;;;;;;11.73;4.13;;;;;;;9.57;100.00;93805.28;2109814;28;20099;-72
2022/10/29 01:56:53;;;;;;;13.00;3.78;;;;;;;9.57;100.00;93805.28;2119678;27;20034;-73
2022/10/29 01:57:55;;;;;;;13.93;4.07;;;;;;;9.58;100.00;93804.13;2122304;27;20357;-71
2022/10/29 01:58:58;;;;;;;11.10;3.97;;;;;;;9.58;100.00;93799.56;2126086;27;20027;-72
2022/10/29 02:00:08;;;;;;;17.45;5.18;;;;;;;9.54;100.00;93803.41;2126356;27;20048;-73
2022/10/29 02:01:18;;;;;;;14.10;4.47;;;;;;;9.54;100.00;93803.41;2126485;27;20026;-72
2022/10/29 02:02:39;;;;;;;14.18;3.72;;;;;;;9.52;100.00;93803.78;2126414;27;20103;-73
2022/10/29 02:04:11;;;;;;;15.43;4.03;;;;;;;9.46;100.00;93808.00;2124341;27;20529;-72
2022/10/29 02:05:33;;;;;;;17.15;4.93;;;;;;;9.47;100.00;93806.09;2124595;27;20061;-72
2022/10/29 02:07:09;;;;;;;8.40;3.95;;;;;;;9.49;100.00;93801.91;2123460;27;20365;-73
2022/10/29 02:08:40;;;;;;;20.42;4.30;;;;;;;9.48;100.00;93808.41;2124247;27;20034;-73
2022/10/29 02:09:53;;;;;;;14.25;4.00;;;;;;;9.48;100.00;93803.06;2124547;27;20376;-72
2022/10/29 02:11:11;;;;;;;10.10;4.35;;;;;;;9.50;100.00;93802.66;2122294;27;20117;-71
2022/10/29 02:12:21;;;;;;;11.70;3.83;;;;;;;9.47;100.00;93798.84;2127006;27;20030;-72
2022/10/29 02:13:32;;;;;;;13.40;3.92;;;;;;;9.48;100.00;93799.59;2116912;28;20058;-71
2022/10/29 02:16:16;;;;;;;;;;;;;;;9.50;100.00;93798.06;2144090;27;20547;-70
2022/10/29 02:17:17;;;;;;;10.05;4.10;;;;;;;9.52;100.00;93801.09;2137540;27;19923;-71
2022/10/29 02:18:19;;;;;;;18.60;4.68;;;;;;;9.53;100.00;93793.88;2138038;27;20026;-71
2022/10/29 02:19:20;;;;;;;13.80;3.80;;;;;;;9.50;100.00;93794.66;2138000;27;20393;-70
2022/10/29 02:20:21;;;;;;;12.55;4.20;;;;;;;9.46;100.00;93800.00;2137927;27;20031;-71
2022/10/29 02:21:22;;;;;;;12.15;4.30;;;;;;;9.47;100.00;93806.84;2138206;27;20019;-70
2022/10/29 02:22:23;;;;;;;14.85;4.28;;;;;;;9.47;100.00;93795.44;2137360;27;20094;-73
2022/10/29 02:23:24;;;;;;;17.38;3.97;;;;;;;9.47;100.00;93792.75;2133566;27;20019;-72
2022/10/29 02:24:25;;;;;;;19.35;4.25;;;;;;;9.49;100.00;93796.56;2137870;27;20029;-74
2022/10/29 02:25:26;;;;;;;14.40;3.83;;;;;;;9.51;100.00;93796.16;2137952;27;20030;-75
2022/10/29 02:26:27;;;;;;;11.75;3.80;;;;;;;9.46;100.00;93796.59;2138001;27;20026;-71
2022/10/29 02:27:28;;;;;;;10.35;3.85;;;;;;;9.51;100.00;93791.59;2137213;27;20067;-73
2022/10/29 02:28:29;;;;;;;10.95;3.95;;;;;;;9.46;100.00;93791.25;2128652;27;20042;-74
2022/10/29 02:29:30;;;;;;;12.70;4.03;;;;;;;9.51;100.00;93799.59;2128556;27;20384;-74
2022/10/29 02:30:31;;;;;;;13.13;4.13;;;;;;;9.47;100.00;93793.50;2138080;27;20038;-74
2022/10/29 02:31:35;;;;;;;18.65;4.80;;;;;;;9.43;100.00;93792.03;2138135;27;20436;-71
2022/10/29 02:32:35;;;;;;;14.93;4.57;;;;;;;9.39;100.00;93799.28;2137850;27;20035;-74
2022/10/29 02:33:36;;;;;;;8.93;3.97;;;;;;;9.35;100.00;93796.66;2135808;27;20037;-73
2022/10/29 02:34:37;;;;;;;18.98;4.65;;;;;;;9.36;100.00;93797.41;2137936;27;20034;-72
2022/10/29 02:35:38;;;;;;;14.40;4.80;;;;;;;9.41;100.00;93795.09;2137869;27;20427;-74
2022/10/29 02:36:39;;;;;;;11.95;3.97;;;;;;;9.41;100.00;93787.09;2138084;27;20517;-74
2022/10/29 02:37:40;;;;;;;13.38;4.47;;;;;;;9.36;100.00;93790.16;2137931;27;20033;-71
2022/10/29 02:38:41;;;;;;;17.83;3.67;;;;;;;9.39;100.00;93794.72;2135304;27;20057;-69
2022/10/29 02:39:42;;;;;;;16.40;4.22;;;;;;;9.39;100.00;93789.38;2136426;27;20037;-74
2022/10/29 02:40:43;;;;;;;11.77;3.85;;;;;;;9.37;100.00;93783.69;2137969;27;20038;-74
2022/10/29 02:41:44;;;;;;;13.85;4.28;;;;;;;9.35;100.00;93780.66;2137846;27;20072;-70
2022/10/29 02:42:45;;;;;;;12.23;4.22;;;;;;;9.35;100.00;93778.00;2137987;27;20106;-70
2022/10/29 02:43:46;;;;;;;11.48;4.47;;;;;;;9.43;100.00;93778.69;2136523;27;20026;-71
2022/10/29 02:44:47;;;;;;;15.32;3.95;;;;;;;9.42;100.00;93777.94;2137933;27;20023;-73
2022/10/29 02:45:49;;;;;;;14.85;4.25;;;;;;;9.44;100.00;93780.19;2137927;27;20709;-73
2022/10/29 02:46:50;;;;;;;13.85;3.55;;;;;;;9.57;100.00;93784.69;2128665;27;20029;-73
2022/10/29 02:47:51;;;;;;;10.85;3.30;;;;;;;9.54;100.00;93776.72;2128763;27;20023;-72
2022/10/29 02:48:52;;;;;;;13.88;3.83;;;;;;;9.50;100.00;93778.66;2137082;27;20049;-71
2022/10/29 02:49:53;;;;;;;11.02;3.25;;;;;;;9.52;100.00;93782.41;2137727;27;20037;-74
2022/10/29 02:50:54;;;;;;;11.25;3.95;;;;;;;9.45;100.00;93773.72;2128484;27;20045;-72
2022/10/29 02:51:55;;;;;;;14.68;4.20;;;;;;;9.43;100.00;93779.44;2128656;27;20027;-69
2022/10/29 02:52:56;;;;;;;14.05;3.72;;;;;;;9.37;100.00;93781.00;2137864;27;20026;-70
2022/10/29 02:53:56;;;;;;;10.30;4.15;;;;;;;9.33;100.00;93775.69;2137291;27;20103;-70
2022/10/29 02:54:57;;;;;;;11.57;3.67;;;;;;;9.31;100.00;93780.69;2137771;27;20026;-72
2022/10/29 02:55:59;;;;;;;15.35;3.83;;;;;;;9.27;100.00;93789.84;2137814;27;20022;-73
2022/10/29 02:57:00;;;;;;;12.85;3.20;;;;;;;9.26;100.00;93777.63;2128694;27;20038;-72
2022/10/29 02:58:00;;;;;;;9.35;3.20;;;;;;;9.24;100.00;93779.94;2128087;27;20030;-72
2022/10/29 02:59:02;;;;;;;10.40;3.97;;;;;;;9.20;100.00;93776.53;2137612;27;20379;-73
2022/10/29 03:00:04;;;;;;;12.38;4.28;;;;;;;9.14;100.00;93775.44;2130798;27;20031;-71
2022/10/29 03:01:05;;;;;;;11.25;3.53;;;;;;;9.20;100.00;93773.88;2128530;27;20027;-72
2022/10/29 03:02:07;;;;;;;17.00;4.53;;;;;;;9.20;100.00;93765.88;2128557;27;20035;-72
2022/10/29 03:03:08;;;;;;;15.52;4.55;;;;;;;9.20;100.00;93774.63;2137397;27;20022;-72
2022/10/29 03:04:10;;;;;;;14.55;4.47;;;;;;;9.23;100.00;93773.09;2128387;27;20366;-73
2022/10/29 03:05:11;;;;;;;9.02;3.67;;;;;;;9.31;100.00;93770.00;2127159;27;20029;-73
2022/10/29 03:06:14;;;;;;;9.73;3.88;;;;;;;9.32;100.00;93770.75;2128456;27;20567;-73
2022/10/29 03:07:15;;;;;;;11.23;4.07;;;;;;;9.24;100.00;93771.94;2128722;27;20023;-72
2022/10/29 03:08:16;;;;;;;13.73;3.90;;;;;;;9.20;100.00;93771.22;2137601;27;20050;-72
2022/10/29 03:09:17;;;;;;;9.10;4.25;;;;;;;9.13;100.00;93774.69;2137564;27;20022;-72
2022/10/29 03:10:18;;;;;;;13.38;3.85;;;;;;;9.09;100.00;93773.94;2137152;27;20034;-72
2022/10/29 03:11:19;;;;;;;15.25;4.22;;;;;;;9.05;100.00;93765.22;2137707;27;20143;-72
2022/10/29 03:12:20;;;;;;;8.45;3.67;;;;;;;9.04;100.00;93763.66;2137736;27;20033;-72
2022/10/29 03:13:21;;;;;;;16.23;4.15;;;;;;;9.01;100.00;93773.22;2137385;27;20421;-72
2022/10/29 03:14:22;;;;;;;12.93;3.70;;;;;;;9.01;100.00;93767.13;2137427;27;20019;-73
2022/10/29 03:15:22;;;;;;;11.50;3.85;;;;;;;9.00;100.00;93781.59;2136472;27;20032;-73
2022/10/29 03:16:23;;;;;;;8.73;3.90;;;;;;;8.94;100.00;93765.25;2133490;27;20049;-74
2022/10/29 03:17:24;;;;;;;21.08;4.57;;;;;;;8.97;100.00;93769.06;2137632;27;20029;-73
2022/10/29 03:18:25;;;;;;;8.88;3.92;;;;;;;8.93;100.00;93774.41;2137635;27;20736;-73
2022/10/29 03:19:26;;;;;;;10.85;4.28;;;;;;;8.83;100.00;93780.53;2137560;27;20030;-73
2022/10/29 03:20:27;;;;;;;11.48;3.80;;;;;;;8.80;100.00;93776.75;2136433;27;20114;-73
2022/10/29 03:21:28;;;;;;;16.23;4.00;;;;;;;8.72;100.00;93777.16;2137722;27;20027;-74
2022/10/29 03:22:29;;;;;;;19.05;3.83;;;;;;;8.77;100.00;93768.75;2137615;27;20069;-71
2022/10/29 03:23:30;;;;;;;9.00;3.85;;;;;;;8.71;100.00;93783.63;2137320;27;20372;-72
2022/10/29 03:24:31;;;;;;;14.25;3.05;;;;;;;8.67;100.00;93777.56;2137551;27;20440;-73
2022/10/29 03:25:32;;;;;;;22.98;4.50;;;;;;;8.66;100.00;93776.81;2136741;27;20034;-73
2022/10/29 03:26:33;;;;;;;12.63;3.40;;;;;;;8.67;100.00;93769.56;2137665;27;20073;-73
2022/10/29 03:27:41;;;;;;;10.82;3.80;;;;;;;8.62;100.00;93775.31;2129434;27;20433;-73
2022/10/29 03:28:42;;;;;;;12.18;3.58;;;;;;;8.54;100.00;93777.97;2131906;27;20030;-73
2022/10/29 03:29:43;;;;;;;6.38;3.28;;;;;;;8.49;100.00;93773.06;2131724;27;20027;-71
2022/10/29 03:30:45;;;;;;;16.75;3.53;;;;;;;8.49;100.00;93770.38;2131013;27;20492;-72
2022/10/29 03:31:45;;;;;;;13.45;4.03;;;;;;;8.45;100.00;93780.28;2131845;27;20034;-72
2022/10/29 03:32:47;;;;;;;8.27;3.38;;;;;;;8.41;100.00;93770.78;2131793;27;20054;-72
2022/10/29 03:33:48;;;;;;;10.85;3.83;;;;;;;8.48;100.00;93768.88;2131478;27;20058;-73
2022/10/29 03:34:48;;;;;;;13.05;3.60;;;;;;;8.42;100.00;93774.97;2131590;27;20027;-73
2022/10/29 03:35:55;;;;;;;14.15;3.75;;;;;;;8.46;100.00;93770.41;2130939;27;20030;-73
2022/10/29 03:36:56;;;;;;;11.35;3.90;;;;;;;8.48;100.00;93768.13;2127844;27;20182;-74
2022/10/29 03:37:57;;;;;;;9.38;3.60;;;;;;;8.45;100.00;93774.22;2122615;27;20192;-73
2022/10/29 03:38:58;;;;;;;12.93;4.13;;;;;;;8.41;100.00;93773.47;2122632;27;20027;-72
2022/10/29 03:39:59;;;;;;;10.88;3.88;;;;;;;8.38;100.00;93771.56;2131591;27;20038;-73
2022/10/29 03:41:00;;;;;;;15.65;3.70;;;;;;;8.36;100.00;93763.19;2130730;27;20303;-72
2022/10/29 03:42:02;;;;;;;13.75;3.75;;;;;;;8.39;100.00;93770.44;2131771;27;20038;-72
2022/10/29 03:43:03;;;;;;;8.88;3.45;;;;;;;8.40;100.00;93772.69;2131564;27;20065;-71
2022/10/29 03:44:05;;;;;;;12.63;3.55;;;;;;;8.33;100.00;93775.34;2131589;27;20018;-73
2022/10/29 03:45:09;;;;;;;14.93;3.65;;;;;;;8.26;100.00;93773.47;2131571;27;20026;-72
2022/10/29 03:46:10;;;;;;;12.75;3.53;;;;;;;8.25;100.00;93765.84;2131633;27;20453;-73
2022/10/29 03:47:11;;;;;;;12.57;3.35;;;;;;;8.25;100.00;93768.50;2131046;27;20023;-72
2022/10/29 03:48:12;;;;;;;14.70;4.03;;;;;;;8.23;100.00;93776.13;2131663;27;20041;-74
2022/10/29 03:49:13;;;;;;;8.10;3.45;;;;;;;8.21;100.00;93765.88;2131489;27;20580;-73
2022/10/29 03:50:13;;;;;;;17.92;3.72;;;;;;;8.19;100.00;93773.47;2131648;27;20030;-74
2022/10/29 03:51:15;;;;;;;7.78;3.55;;;;;;;8.22;100.00;93767.41;2130927;27;20435;-73
2022/10/29 03:52:16;;;;;;;12.50;4.28;;;;;;;8.24;100.00;93762.44;2131405;27;20029;-72
2022/10/29 03:53:17;;;;;;;15.75;4.82;;;;;;;8.24;100.00;93764.34;2131439;27;20019;-73
2022/10/29 03:54:18;;;;;;;10.68;3.33;;;;;;;8.22;100.00;93764.72;2131700;27;20550;-73
2022/10/29 03:55:19;;;;;;;18.40;4.50;;;;;;;8.24;100.00;93762.44;2131443;27;20041;-73
2022/10/29 03:56:20;;;;;;;7.55;3.83;;;;;;;8.22;100.00;93763.97;2131602;27;20023;-73
2022/10/29 03:57:20;;;;;;;9.60;3.15;;;;;;;8.20;100.00;93760.91;2130933;27;20022;-71
2022/10/29 03:58:22;;;;;;;9.57;4.10;;;;;;;8.17;100.00;93761.72;2131651;27;20027;-72
2022/10/29 03:59:23;;;;;;;11.38;3.88;;;;;;;8.16;100.00;93758.25;2131699;27;20550;-71
2022/10/29 04:00:24;;;;;;;7.78;3.47;;;;;;;8.16;100.00;93760.16;2127288;27;20095;-71
2022/10/29 04:01:24;;;;;;;14.73;3.80;;;;;;;8.23;100.00;93757.50;2131628;27;20063;-71
2022/10/29 04:02:26;;;;;;;9.70;3.53;;;;;;;8.13;100.00;93758.28;2130751;27;20042;-72
2022/10/29 04:03:29;;;;;;;11.77;4.28;;;;;;;8.14;100.00;93757.13;2131162;27;20086;-73
2022/10/29 04:04:30;;;;;;;11.10;3.47;;;;;;;8.09;100.00;93758.28;2131430;27;20027;-71
2022/10/29 04:05:31;;;;;;;8.32;3.38;;;;;;;8.06;100.00;93761.72;2131475;27;20369;-72
2022/10/29 04:06:32;;;;;;;14.75;4.10;;;;;;;8.07;100.00;93756.00;2122455;27;20027;-73
2022/10/29 04:07:33;;;;;;;11.35;3.58;;;;;;;8.04;100.00;93756.78;2121826;27;20534;-73
2022/10/29 04:08:34;;;;;;;12.60;3.70;;;;;;;8.01;100.00;93752.22;2131528;27;20026;-73
2022/10/29 04:09:35;;;;;;;13.02;3.92;;;;;;;7.99;100.00;93761.72;2131570;27;20027;-71
2022/10/29 04:10:36;;;;;;;8.30;3.42;;;;;;;8.05;100.00;93760.97;2131409;27;20490;-73
2022/10/29 04:11:37;;;;;;;9.75;3.80;;;;;;;8.08;100.00;93760.19;2131449;27;20083;-73
2022/10/29 04:12:37;;;;;;;13.00;3.72;;;;;;;8.03;100.00;93763.25;2130635;27;20071;-73
2022/10/29 04:13:39;;;;;;;15.13;3.97;;;;;;;7.98;100.00;93758.28;2131125;27;20042;-72
2022/10/29 04:14:41;;;;;;;11.23;4.00;;;;;;;8.00;100.00;93761.34;2131447;27;20452;-73
2022/10/29 04:15:42;;;;;;;11.18;4.50;;;;;;;7.95;100.00;93761.75;2130545;27;20568;-73
2022/10/29 04:16:43;;;;;;;14.52;4.28;;;;;;;7.94;100.00;93762.84;2131489;27;20186;-72
2022/10/29 04:17:44;;;;;;;13.20;3.92;;;;;;;8.04;100.00;93758.69;2130586;27;20459;-72
2022/10/29 04:18:48;;;;;;;11.32;4.55;;;;;;;8.09;100.00;93760.94;2131381;27;20034;-72
2022/10/29 04:19:49;;;;;;;12.68;4.38;;;;;;;8.10;100.00;93765.13;2122173;27;20143;-71
2022/10/29 04:20:50;;;;;;;15.90;4.68;;;;;;;8.05;100.00;93762.88;2122242;27;20055;-72
2022/10/29 04:21:52;;;;;;;7.63;4.10;;;;;;;8.00;100.00;93758.69;2131361;27;20034;-73
2022/10/29 04:22:53;;;;;;;16.00;4.55;;;;;;;7.97;100.00;93761.34;2131189;27;20077;-72
2022/10/29 04:23:54;;;;;;;11.68;4.20;;;;;;;7.93;100.00;93769.34;2130090;27;20384;-72
2022/10/29 04:24:55;;;;;;;12.70;4.70;;;;;;;7.91;100.00;93763.66;2131349;27;20069;-71
2022/10/29 04:25:57;;;;;;;11.48;4.38;;;;;;;7.93;100.00;93761.34;2131197;27;20117;-72
2022/10/29 04:26:59;;;;;;;10.70;4.07;;;;;;;7.90;100.00;93762.13;2131313;27;20031;-73
2022/10/29 04:28:00;;;;;;;7.25;3.70;;;;;;;7.92;100.00;93757.19;2130698;27;20030;-71
2022/10/29 04:29:01;;;;;;;9.45;4.30;;;;;;;7.90;100.00;93762.13;2128200;27;20018;-71
2022/10/29 04:30:02;;;;;;;12.55;4.72;;;;;;;7.79;100.00;93756.81;2131322;27;20077;-72
2022/10/29 04:31:05;;;;;;;10.38;4.10;;;;;;;7.80;100.00;93760.22;2131186;27;20023;-71
2022/10/29 04:32:06;;;;;;;10.80;4.65;;;;;;;7.74;100.00;93759.09;2131390;27;20079;-73
2022/10/29 04:33:07;;;;;;;11.55;3.72;;;;;;;7.76;100.00;93762.88;2130763;27;20052;-73
2022/10/29 04:34:08;;;;;;;13.07;4.20;;;;;;;7.75;100.00;93771.25;2130588;27;20026;-72
2022/10/29 04:35:09;;;;;;;6.45;3.88;;;;;;;7.69;100.00;93762.16;2131319;27;20345;-71
2022/10/29 04:36:10;;;;;;;15.13;4.70;;;;;;;7.73;100.00;93768.97;2131076;27;20015;-72
2022/10/29 04:37:11;;;;;;;11.35;4.38;;;;;;;7.71;100.00;93765.94;2131278;27;20075;-72
2022/10/29 04:38:12;;;;;;;16.33;4.15;;;;;;;7.68;100.00;93774.69;2130987;27;20183;-71
2022/10/29 04:39:13;;;;;;;13.25;4.50;;;;;;;7.61;100.00;93766.69;2129291;27;20033;-71
2022/10/29 04:40:14;;;;;;;8.23;3.58;;;;;;;7.62;100.00;93772.78;2131260;27;20491;-72
2022/10/29 04:41:14;;;;;;;7.68;3.85;;;;;;;7.66;100.00;93765.56;2131097;27;20062;-72
2022/10/29 04:42:15;;;;;;;10.15;4.30;;;;;;;7.66;100.00;93768.22;2130955;27;20026;-73
2022/10/29 04:43:17;;;;;;;7.80;4.03;;;;;;;7.64;100.00;93770.47;2130860;27;20038;-73
2022/10/29 04:44:18;;;;;;;11.25;4.30;;;;;;;7.81;100.00;93769.72;2130495;27;20041;-72
2022/10/29 04:45:19;;;;;;;9.15;4.53;;;;;;;7.80;100.00;93776.19;2131219;27;20029;-73
2022/10/29 04:46:20;;;;;;;10.43;4.25;;;;;;;7.76;100.00;93772.78;2131172;27;20023;-71
2022/10/29 04:47:21;;;;;;;8.40;4.60;;;;;;;7.77;100.00;93787.59;2131151;27;20095;-72
2022/10/29 04:48:24;;;;;;;24.50;5.53;;;;;;;7.76;100.00;93772.78;2131052;27;20842;-72
2022/10/29 04:49:25;;;;;;;16.42;4.85;;;;;;;7.73;100.00;93778.88;2127815;27;20019;-73
2022/10/29 04:50:26;;;;;;;11.85;4.85;;;;;;;7.68;100.00;93777.34;2131199;27;20027;-70
2022/10/29 04:51:27;;;;;;;8.88;4.43;;;;;;;7.72;100.00;93774.66;2131074;27;20022;-71
2022/10/29 04:52:28;;;;;;;13.20;3.90;;;;;;;7.71;100.00;93781.13;2131203;27;20022;-71
2022/10/29 04:53:30;;;;;;;10.30;4.43;;;;;;;7.71;100.00;93771.25;2130656;27;20042;-71
2022/10/29 04:54:31;;;;;;;11.18;3.63;;;;;;;7.66;100.00;93778.88;2129878;27;20483;-71
2022/10/29 04:55:35;;;;;;;12.18;4.10;;;;;;;7.60;100.00;93775.06;2121664;27;20031;-72
2022/10/29 04:56:36;;;;;;;12.73;3.88;;;;;;;7.51;100.00;93778.88;2122467;27;20186;-72
2022/10/29 04:57:37;;;;;;;22.67;4.75;;;;;;;7.54;100.00;93777.31;2131101;27;20027;-71
2022/10/29 04:58:38;;;;;;;12.90;4.15;;;;;;;7.55;100.00;93776.97;2131146;27;20027;-71
2022/10/29 04:59:39;;;;;;;11.40;4.10;;;;;;;7.55;100.00;93784.16;2130164;27;20338;-72
2022/10/29 05:00:40;;;;;;;9.68;4.25;;;;;;;7.52;100.00;93780.38;2131073;27;20037;-72
2022/10/29 05:01:41;;;;;;;10.15;3.45;;;;;;;7.55;100.00;93779.63;2131019;27;20030;-72
2022/10/29 05:02:46;;;;;;;13.00;4.57;;;;;;;7.61;100.00;93782.66;2131137;27;20027;-72